sensor_id;sensor_type;location;lat;lon;timestamp;pressure;altitude;pressure_sealevel;temperature;humidity
31681;BME280;18281;51.364;9.566;2022-10-31T00:01:02;100503.84;;;8.18;100.00
31681;BME280;18281;51.364;9.566;2022-10-31T00:03:34;100502.19;;;8.16;100.00
31681;BME280;18281;51.364;9.566;2022-10-31T00:05:59;100504.19;;;8.09;100.00
31681;BME280;18281;51.364;9.566;2022-10-31T00:08:27;100511.84;;;8.14;100.00
31681;BME280;18281;51.364;9.566;2022-10-31T00:10:52;100503.94;;;8.15;100.00
31681;BME280;18281;51.364;9.566;2022-10-31T00:13:17;100510.13;;;8.13;100.00
31681;BME280;18281;51.364;9.566;2022-10-31T00:15:43;100508.78;;;8.26;100.00
31681;BME280;18281;51.364;9.566;2022-10-31T00:18:09;100513.28;;;8.22;100.00
31681;BME280;18281;51.364;9.566;2022-10-31T00:20:35;100510.09;;;8.14;100.00
31681;BME280;18281;51.364;9.566;2022-10-31T00:23:02;100518.38;;;8.02;100.00
31681;BME280;18281;51.364;9.566;2022-10-31T00:25:35;100522.44;;;8.11;100.00
31681;BME280;18281;51.364;9.566;2022-10-31T00:28:01;100523.19;;;8.14;100.00
31681;BME280;18281;51.364;9.566;2022-10-31T00:30:26;100522.56;;;8.07;100.00
31681;BME280;18281;51.364;9.566;2022-10-31T00:32:52;100522.44;;;8.11;100.00
31681;BME280;18281;51.364;9.566;2022-10-31T00:35:17;100530.97;;;8.16;100.00
31681;BME280;18281;51.364;9.566;2022-10-31T00:37:43;100528.50;;;8.11;100.00
31681;BME280;18281;51.364;9.566;2022-10-31T00:40:09;100526.00;;;8.08;100.00
31681;BME280;18281;51.364;9.566;2022-10-31T00:42:34;100525.16;;;8.07;100.00
31681;BME280;18281;51.364;9.566;2022-10-31T00:45:00;100524.84;;;8.17;100.00
31681;BME280;18281;51.364;9.566;2022-10-31T00:47:28;100534.97;;;8.24;100.00
31681;BME280;18281;51.364;9.566;2022-10-31T00:49:56;100537.50;;;8.04;100.00
31681;BME280;18281;51.364;9.566;2022-10-31T00:52:21;100537.00;;;7.94;100.00
31681;BME280;18281;51.364;9.566;2022-10-31T00:54:47;100541.25;;;7.97;100.00
31681;BME280;18281;51.364;9.566;2022-10-31T00:57:12;100539.44;;;7.99;100.00
31681;BME280;18281;51.364;9.566;2022-10-31T00:59:37;100540.31;;;7.98;100.00
31681;BME280;18281;51.364;9.566;2022-10-31T01:02:03;100549.31;;;7.90;100.00
31681;BME280;18281;51.364;9.566;2022-10-31T01:04:28;100547.66;;;7.88;100.00
31681;BME280;18281;51.364;9.566;2022-10-31T01:06:54;100547.84;;;7.83;100.00
31681;BME280;18281;51.364;9.566;2022-10-31T01:09:22;100549.50;;;7.84;100.00
31681;BME280;18281;51.364;9.566;2022-10-31T01:11:47;100551.66;;;7.73;100.00
31681;BME280;18281;51.364;9.566;2022-10-31T01:14:13;100544.84;;;7.69;100.00
31681;BME280;18281;51.364;9.566;2022-10-31T01:16:41;100546.44;;;7.73;100.00
31681;BME280;18281;51.364;9.566;2022-10-31T01:19:07;100547.03;;;7.56;100.00
31681;BME280;18281;51.364;9.566;2022-10-31T01:21:32;100556.78;;;7.76;100.00
31681;BME280;18281;51.364;9.566;2022-10-31T01:23:58;100552.81;;;7.64;100.00
31681;BME280;18281;51.364;9.566;2022-10-31T01:26:28;100549.50;;;7.59;100.00
31681;BME280;18281;51.364;9.566;2022-10-31T01:29:07;100552.09;;;7.61;100.00
31681;BME280;18281;51.364;9.566;2022-10-31T01:31:36;100550.16;;;7.66;100.00
31681;BME280;18281;51.364;9.566;2022-10-31T01:34:02;100556.00;;;7.74;100.00
31681;BME280;18281;51.364;9.566;2022-10-31T01:36:35;100551.09;;;7.65;100.00
31681;BME280;18281;51.364;9.566;2022-10-31T01:39:09;100552.13;;;7.59;100.00
31681;BME280;18281;51.364;9.566;2022-10-31T01:41:38;100554.28;;;7.48;100.00
31681;BME280;18281;51.364;9.566;2022-10-31T01:49:40;100561.25;;;7.47;100.00
31681;BME280;18281;51.364;9.566;2022-10-31T01:52:18;100562.28;;;7.43;100.00
31681;BME280;18281;51.364;9.566;2022-10-31T01:54:50;100557.72;;;7.48;100.00
31681;BME280;18281;51.364;9.566;2022-10-31T01:57:18;100553.78;;;7.62;100.00
31681;BME280;18281;51.364;9.566;2022-10-31T01:59:51;100551.28;;;7.58;100.00
31681;BME280;18281;51.364;9.566;2022-10-31T02:02:19;100558.97;;;7.38;100.00
31681;BME280;18281;51.364;9.566;2022-10-31T02:04:46;100554.56;;;7.38;100.00
31681;BME280;18281;51.364;9.566;2022-10-31T02:07:16;100554.44;;;7.68;100.00
31681;BME280;18281;51.364;9.566;2022-10-31T02:09:44;100560.34;;;7.21;100.00
31681;BME280;18281;51.364;9.566;2022-10-31T02:12:16;100562.78;;;7.28;100.00
31681;BME280;18281;51.364;9.566;2022-10-31T02:14:42;100574.06;;;7.28;100.00
31681;BME280;18281;51.364;9.566;2022-10-31T02:17:08;100571.63;;;7.23;100.00
31681;BME280;18281;51.364;9.566;2022-10-31T02:19:55;100566.16;;;7.31;100.00
31681;BME280;18281;51.364;9.566;2022-10-31T02:28:39;100575.13;;;7.22;100.00
31681;BME280;18281;51.364;9.566;2022-10-31T02:36:43;100566.69;;;7.41;100.00
31681;BME280;18281;51.364;9.566;2022-10-31T02:39:38;100564.13;;;7.13;100.00
31681;BME280;18281;51.364;9.566;2022-10-31T02:42:15;100557.56;;;7.28;100.00
31681;BME280;18281;51.364;9.566;2022-10-31T02:44:44;100563.06;;;7.18;100.00
31681;BME280;18281;51.364;9.566;2022-10-31T02:47:18;100557.94;;;7.42;100.00
31681;BME280;18281;51.364;9.566;2022-10-31T02:52:28;100563.44;;;7.07;100.00
31681;BME280;18281;51.364;9.566;2022-10-31T02:54:54;100562.47;;;7.10;100.00
31681;BME280;18281;51.364;9.566;2022-10-31T02:57:39;100562.47;;;7.37;100.00
31681;BME280;18281;51.364;9.566;2022-10-31T03:00:08;100569.47;;;7.10;100.00
31681;BME280;18281;51.364;9.566;2022-10-31T03:05:27;100567.03;;;7.30;100.00
31681;BME280;18281;51.364;9.566;2022-10-31T03:10:57;100567.16;;;6.99;100.00
31681;BME280;18281;51.364;9.566;2022-10-31T03:16:13;100565.69;;;7.18;100.00
31681;BME280;18281;51.364;9.566;2022-10-31T03:18:44;100565.75;;;6.88;100.00
31681;BME280;18281;51.364;9.566;2022-10-31T03:21:21;100567.75;;;7.09;100.00
31681;BME280;18281;51.364;9.566;2022-10-31T03:23:50;100560.09;;;7.29;100.00
31681;BME280;18281;51.364;9.566;2022-10-31T03:26:17;100561.06;;;7.00;100.00
31681;BME280;18281;51.364;9.566;2022-10-31T03:29:07;100568.75;;;6.74;100.00
31681;BME280;18281;51.364;9.566;2022-10-31T03:31:42;100568.19;;;6.93;100.00
31681;BME280;18281;51.364;9.566;2022-10-31T03:34:13;100567.28;;;6.96;100.00
31681;BME280;18281;51.364;9.566;2022-10-31T03:36:41;100563.13;;;6.88;100.00
31681;BME280;18281;51.364;9.566;2022-10-31T03:39:12;100562.22;;;6.89;100.00
31681;BME280;18281;51.364;9.566;2022-10-31T03:41:39;100561.25;;;6.92;100.00
31681;BME280;18281;51.364;9.566;2022-10-31T03:44:27;100563.31;;;6.82;100.00
31681;BME280;18281;51.364;9.566;2022-10-31T03:46:54;100566.03;;;6.79;100.00
31681;BME280;18281;51.364;9.566;2022-10-31T03:49:20;100578.13;;;6.82;100.00
31681;BME280;18281;51.364;9.566;2022-10-31T03:52:01;100592.41;;;6.70;100.00
31681;BME280;18281;51.364;9.566;2022-10-31T03:54:43;100599.19;;;6.76;100.00
31681;BME280;18281;51.364;9.566;2022-10-31T03:57:24;100594.97;;;7.00;100.00
31681;BME280;18281;51.364;9.566;2022-10-31T04:00:05;100592.38;;;7.00;100.00
31681;BME280;18281;51.364;9.566;2022-10-31T04:02:33;100597.75;;;6.95;100.00
31681;BME280;18281;51.364;9.566;2022-10-31T04:05:00;100589.50;;;6.79;100.00
31681;BME280;18281;51.364;9.566;2022-10-31T04:07:29;100598.94;;;6.83;100.00
31681;BME280;18281;51.364;9.566;2022-10-31T04:09:57;100603.13;;;6.89;100.00
31681;BME280;18281;51.364;9.566;2022-10-31T04:12:25;100601.00;;;6.73;100.00
31681;BME280;18281;51.364;9.566;2022-10-31T04:14:52;100602.56;;;6.79;100.00
31681;BME280;18281;51.364;9.566;2022-10-31T04:17:24;100593.78;;;6.82;100.00
31681;BME280;18281;51.364;9.566;2022-10-31T04:19:52;100592.28;;;6.73;100.00
31681;BME280;18281;51.364;9.566;2022-10-31T04:22:18;100582.72;;;6.73;100.00
31681;BME280;18281;51.364;9.566;2022-10-31T04:24:43;100585.56;;;6.66;100.00
31681;BME280;18281;51.364;9.566;2022-10-31T04:27:08;100582.13;;;6.64;100.00
31681;BME280;18281;51.364;9.566;2022-10-31T04:29:34;100590.28;;;6.53;100.00
31681;BME280;18281;51.364;9.566;2022-10-31T04:31:59;100588.56;;;6.82;100.00
31681;BME280;18281;51.364;9.566;2022-10-31T04:34:28;100585.28;;;6.75;100.00
31681;BME280;18281;51.364;9.566;2022-10-31T04:36:53;100589.06;;;6.65;100.00
31681;BME280;18281;51.364;9.566;2022-10-31T04:39:19;100592.78;;;6.57;100.00
31681;BME280;18281;51.364;9.566;2022-10-31T04:41:44;100597.66;;;6.68;100.00
31681;BME280;18281;51.364;9.566;2022-10-31T04:44:09;100584.00;;;6.58;100.00
31681;BME280;18281;51.364;9.566;2022-10-31T04:46:35;100594.38;;;6.62;100.00
31681;BME280;18281;51.364;9.566;2022-10-31T04:49:03;100587.53;;;6.57;100.00
31681;BME280;18281;51.364;9.566;2022-10-31T04:51:31;100586.94;;;6.49;100.00
31681;BME280;18281;51.364;9.566;2022-10-31T04:53:57;100585.16;;;6.50;100.00
31681;BME280;18281;51.364;9.566;2022-10-31T04:56:22;100586.72;;;6.55;100.00
31681;BME280;18281;51.364;9.566;2022-10-31T04:58:53;100579.78;;;6.54;100.00
31681;BME280;18281;51.364;9.566;2022-10-31T05:01:18;100579.16;;;6.46;100.00
31681;BME280;18281;51.364;9.566;2022-10-31T05:03:44;100578.56;;;6.66;100.00
31681;BME280;18281;51.364;9.566;2022-10-31T05:06:09;100581.59;;;6.52;100.00
31681;BME280;18281;51.364;9.566;2022-10-31T05:08:35;100579.47;;;6.05;100.00
31681;BME280;18281;51.364;9.566;2022-10-31T05:11:01;100587.66;;;6.23;100.00
31681;BME280;18281;51.364;9.566;2022-10-31T05:13:29;100586.19;;;6.44;100.00
31681;BME280;18281;51.364;9.566;2022-10-31T05:15:57;100590.84;;;6.33;100.00
31681;BME280;18281;51.364;9.566;2022-10-31T05:18:23;100593.72;;;6.23;100.00
31681;BME280;18281;51.364;9.566;2022-10-31T05:20:48;100587.72;;;6.21;100.00
31681;BME280;18281;51.364;9.566;2022-10-31T05:23:16;100587.97;;;6.12;100.00
31681;BME280;18281;51.364;9.566;2022-10-31T05:25:48;100590.13;;;6.28;100.00
31681;BME280;18281;51.364;9.566;2022-10-31T05:28:13;100584.06;;;6.27;100.00
31681;BME280;18281;51.364;9.566;2022-10-31T05:30:38;100590.47;;;6.15;100.00
31681;BME280;18281;51.364;9.566;2022-10-31T05:33:04;100582.81;;;6.11;100.00
31681;BME280;18281;51.364;9.566;2022-10-31T05:35:33;100580.25;;;6.09;100.00
31681;BME280;18281;51.364;9.566;2022-10-31T05:37:59;100578.44;;;6.11;100.00
31681;BME280;18281;51.364;9.566;2022-10-31T05:40:25;100580.00;;;6.17;100.00
31681;BME280;18281;51.364;9.566;2022-10-31T05:42:52;100574.94;;;6.12;100.00
31681;BME280;18281;51.364;9.566;2022-10-31T05:45:18;100578.53;;;6.08;100.00
31681;BME280;18281;51.364;9.566;2022-10-31T05:47:58;100590.25;;;5.92;100.00
31681;BME280;18281;51.364;9.566;2022-10-31T05:50:30;100585.94;;;5.90;100.00
31681;BME280;18281;51.364;9.566;2022-10-31T05:53:01;100600.78;;;6.80;100.00
31681;BME280;18281;51.364;9.566;2022-10-31T05:55:28;100600.34;;;7.50;100.00
31681;BME280;18281;51.364;9.566;2022-10-31T05:57:54;100602.19;;;7.73;100.00
31681;BME280;18281;51.364;9.566;2022-10-31T06:00:20;100588.59;;;7.89;100.00
31681;BME280;18281;51.364;9.566;2022-10-31T06:02:46;100574.22;;;8.01;100.00
31681;BME280;18281;51.364;9.566;2022-10-31T06:05:12;100575.00;;;8.03;100.00
31681;BME280;18281;51.364;9.566;2022-10-31T06:07:38;100573.28;;;8.03;100.00
31681;BME280;18281;51.364;9.566;2022-10-31T06:10:06;100574.75;;;8.11;100.00
31681;BME280;18281;51.364;9.566;2022-10-31T06:12:32;100579.69;;;8.18;100.00
31681;BME280;18281;51.364;9.566;2022-10-31T06:15:05;100582.94;;;8.25;100.00
31681;BME280;18281;51.364;9.566;2022-10-31T06:17:31;100578.69;;;8.22;100.00
31681;BME280;18281;51.364;9.566;2022-10-31T06:19:56;100567.06;;;8.30;100.00
31681;BME280;18281;51.364;9.566;2022-10-31T06:22:22;100563.34;;;8.35;100.00
31681;BME280;18281;51.364;9.566;2022-10-31T06:24:47;100569.06;;;8.23;100.00
31681;BME280;18281;51.364;9.566;2022-10-31T06:27:12;100564.56;;;8.27;100.00
31681;BME280;18281;51.364;9.566;2022-10-31T06:29:38;100566.97;;;8.33;100.00
31681;BME280;18281;51.364;9.566;2022-10-31T06:32:03;100559.00;;;8.12;100.00
31681;BME280;18281;51.364;9.566;2022-10-31T06:34:29;100571.34;;;7.58;100.00
31681;BME280;18281;51.364;9.566;2022-10-31T06:36:54;100579.78;;;6.84;100.00
31681;BME280;18281;51.364;9.566;2022-10-31T06:39:19;100581.22;;;6.65;100.00
31681;BME280;18281;51.364;9.566;2022-10-31T06:41:47;100583.06;;;6.61;100.00
31681;BME280;18281;51.364;9.566;2022-10-31T06:44:12;100583.78;;;6.66;100.00
31681;BME280;18281;51.364;9.566;2022-10-31T06:46:38;100583.56;;;6.74;100.00
31681;BME280;18281;51.364;9.566;2022-10-31T06:49:03;100587.75;;;6.50;100.00
31681;BME280;18281;51.364;9.566;2022-10-31T06:51:28;100586.19;;;6.44;100.00
31681;BME280;18281;51.364;9.566;2022-10-31T06:53:54;100589.38;;;6.54;100.00
31681;BME280;18281;51.364;9.566;2022-10-31T06:56:19;100588.19;;;6.36;100.00
31681;BME280;18281;51.364;9.566;2022-10-31T06:58:44;100596.38;;;6.53;100.00
31681;BME280;18281;51.364;9.566;2022-10-31T07:01:10;100606.06;;;6.48;100.00
31681;BME280;18281;51.364;9.566;2022-10-31T07:03:35;100601.22;;;6.36;100.00
31681;BME280;18281;51.364;9.566;2022-10-31T07:06:00;100597.84;;;6.32;100.00
31681;BME280;18281;51.364;9.566;2022-10-31T07:08:26;100608.00;;;6.42;100.00
31681;BME280;18281;51.364;9.566;2022-10-31T07:10:53;100605.66;;;6.32;100.00
31681;BME280;18281;51.364;9.566;2022-10-31T07:13:20;100606.91;;;6.49;100.00
31681;BME280;18281;51.364;9.566;2022-10-31T07:15:55;100606.81;;;6.53;100.00
31681;BME280;18281;51.364;9.566;2022-10-31T07:18:24;100603.16;;;6.29;100.00
31681;BME280;18281;51.364;9.566;2022-10-31T07:20:49;100591.75;;;6.32;100.00
31681;BME280;18281;51.364;9.566;2022-10-31T07:23:14;100600.53;;;6.59;100.00
31681;BME280;18281;51.364;9.566;2022-10-31T07:25:40;100605.13;;;6.51;100.00
31681;BME280;18281;51.364;9.566;2022-10-31T07:28:06;100611.78;;;6.00;100.00
31681;BME280;18281;51.364;9.566;2022-10-31T07:30:32;100619.00;;;6.21;100.00
31681;BME280;18281;51.364;9.566;2022-10-31T07:32:57;100607.38;;;6.33;100.00
31681;BME280;18281;51.364;9.566;2022-10-31T07:35:25;100620.31;;;6.36;100.00
31681;BME280;18281;51.364;9.566;2022-10-31T07:37:51;100613.28;;;6.38;100.00
31681;BME280;18281;51.364;9.566;2022-10-31T07:40:17;100612.34;;;6.43;100.00
31681;BME280;18281;51.364;9.566;2022-10-31T07:42:44;100612.28;;;6.44;100.00
31681;BME280;18281;51.364;9.566;2022-10-31T07:45:12;100613.88;;;6.78;100.00
31681;BME280;18281;51.364;9.566;2022-10-31T07:47:43;100619.69;;;6.88;100.00
31681;BME280;18281;51.364;9.566;2022-10-31T07:50:11;100619.00;;;6.81;100.00
31681;BME280;18281;51.364;9.566;2022-10-31T07:52:37;100626.41;;;6.97;100.00
31681;BME280;18281;51.364;9.566;2022-10-31T07:55:03;100620.25;;;6.99;100.00
31681;BME280;18281;51.364;9.566;2022-10-31T07:57:28;100620.53;;;6.60;100.00
31681;BME280;18281;51.364;9.566;2022-10-31T07:59:54;100625.66;;;6.91;100.00
31681;BME280;18281;51.364;9.566;2022-10-31T08:02:19;100622.63;;;7.07;100.00
31681;BME280;18281;51.364;9.566;2022-10-31T08:04:45;100621.56;;;6.84;100.00
31681;BME280;18281;51.364;9.566;2022-10-31T08:07:10;100626.50;;;6.94;100.00
31681;BME280;18281;51.364;9.566;2022-10-31T08:09:35;100628.66;;;7.09;100.00
31681;BME280;18281;51.364;9.566;2022-10-31T08:12:01;100618.81;;;7.44;100.00
31681;BME280;18281;51.364;9.566;2022-10-31T08:14:27;100615.72;;;7.60;100.00
31681;BME280;18281;51.364;9.566;2022-10-31T08:16:53;100613.81;;;7.65;100.00
31681;BME280;18281;51.364;9.566;2022-10-31T08:19:18;100613.63;;;7.69;100.00
31681;BME280;18281;51.364;9.566;2022-10-31T08:21:43;100626.22;;;7.58;100.00
31681;BME280;18281;51.364;9.566;2022-10-31T08:24:09;100636.09;;;7.21;100.00
31681;BME280;18281;51.364;9.566;2022-10-31T08:26:34;100624.41;;;7.60;100.00
31681;BME280;18281;51.364;9.566;2022-10-31T08:29:00;100610.25;;;7.66;100.00
31681;BME280;18281;51.364;9.566;2022-10-31T08:31:26;100620.34;;;7.78;100.00
31681;BME280;18281;51.364;9.566;2022-10-31T08:33:52;100607.28;;;8.02;100.00
31681;BME280;18281;51.364;9.566;2022-10-31T08:36:18;100599.13;;;8.36;100.00
31681;BME280;18281;51.364;9.566;2022-10-31T08:38:44;100609.13;;;8.49;100.00
31681;BME280;18281;51.364;9.566;2022-10-31T08:41:11;100603.94;;;8.47;100.00
31681;BME280;18281;51.364;9.566;2022-10-31T08:43:36;100607.59;;;8.43;100.00
31681;BME280;18281;51.364;9.566;2022-10-31T08:46:01;100601.94;;;9.44;100.00
31681;BME280;18281;51.364;9.566;2022-10-31T08:48:28;100593.00;;;9.70;100.00
31681;BME280;18281;51.364;9.566;2022-10-31T08:50:56;100593.03;;;10.10;100.00
31681;BME280;18281;51.364;9.566;2022-10-31T08:53:23;100594.75;;;10.11;100.00
31681;BME280;18281;51.364;9.566;2022-10-31T08:55:49;100586.59;;;10.17;100.00
31681;BME280;18281;51.364;9.566;2022-10-31T08:58:19;100580.78;;;10.30;100.00
31681;BME280;18281;51.364;9.566;2022-10-31T09:00:46;100586.78;;;10.71;100.00
31681;BME280;18281;51.364;9.566;2022-10-31T09:03:14;100577.09;;;10.72;100.00
31681;BME280;18281;51.364;9.566;2022-10-31T09:05:40;100585.78;;;10.74;100.00
31681;BME280;18281;51.364;9.566;2022-10-31T09:08:06;100578.53;;;10.60;100.00
31681;BME280;18281;51.364;9.566;2022-10-31T09:10:33;100572.28;;;10.63;100.00
31681;BME280;18281;51.364;9.566;2022-10-31T09:13:00;100579.50;;;10.76;100.00
31681;BME280;18281;51.364;9.566;2022-10-31T09:15:27;100565.84;;;10.89;100.00
31681;BME280;18281;51.364;9.566;2022-10-31T09:17:53;100567.41;;;10.93;100.00
31681;BME280;18281;51.364;9.566;2022-10-31T09:20:20;100565.47;;;10.97;100.00
31681;BME280;18281;51.364;9.566;2022-10-31T09:22:45;100556.00;;;10.92;100.00
31681;BME280;18281;51.364;9.566;2022-10-31T09:25:11;100551.97;;;11.39;100.00
31681;BME280;18281;51.364;9.566;2022-10-31T09:27:36;100552.34;;;11.67;100.00
31681;BME280;18281;51.364;9.566;2022-10-31T09:30:03;100552.75;;;11.24;100.00
31681;BME280;18281;51.364;9.566;2022-10-31T09:32:28;100555.75;;;11.51;100.00
31681;BME280;18281;51.364;9.566;2022-10-31T09:34:53;100550.03;;;11.61;100.00
31681;BME280;18281;51.364;9.566;2022-10-31T09:37:19;100550.19;;;11.75;100.00
31681;BME280;18281;51.364;9.566;2022-10-31T09:39:44;100548.91;;;11.82;100.00
31681;BME280;18281;51.364;9.566;2022-10-31T09:42:19;100543.97;;;11.94;100.00
31681;BME280;18281;51.364;9.566;2022-10-31T09:50:22;100541.31;;;12.11;100.00
31681;BME280;18281;51.364;9.566;2022-10-31T09:53:00;100538.28;;;12.19;100.00
31681;BME280;18281;51.364;9.566;2022-10-31T09:55:47;100531.91;;;12.23;100.00
31681;BME280;18281;51.364;9.566;2022-10-31T09:58:20;100526.53;;;12.24;100.00
31681;BME280;18281;51.364;9.566;2022-10-31T10:00:48;100522.38;;;12.20;100.00
31681;BME280;18281;51.364;9.566;2022-10-31T10:05:46;100511.59;;;12.57;100.00
31681;BME280;18281;51.364;9.566;2022-10-31T10:08:25;100511.16;;;12.65;100.00
31681;BME280;18281;51.364;9.566;2022-10-31T10:11:11;100507.25;;;12.72;100.00
31681;BME280;18281;51.364;9.566;2022-10-31T10:19:24;100497.91;;;12.50;100.00
31681;BME280;18281;51.364;9.566;2022-10-31T10:22:08;100500.63;;;12.65;100.00
31681;BME280;18281;51.364;9.566;2022-10-31T10:27:31;100492.94;;;12.76;100.00
31681;BME280;18281;51.364;9.566;2022-10-31T10:32:55;100476.09;;;13.25;100.00
31681;BME280;18281;51.364;9.566;2022-10-31T10:36:05;100482.53;;;13.35;100.00
31681;BME280;18281;51.364;9.566;2022-10-31T10:38:16;100479.06;;;13.49;100.00
31681;BME280;18281;51.364;9.566;2022-10-31T10:40:43;100476.53;;;13.62;100.00
31681;BME280;18281;51.364;9.566;2022-10-31T10:43:34;100474.28;;;13.70;100.00
31681;BME280;18281;51.364;9.566;2022-10-31T10:46:16;100463.44;;;13.89;100.00
31681;BME280;18281;51.364;9.566;2022-10-31T10:49:14;100467.13;;;14.01;100.00
31681;BME280;18281;51.364;9.566;2022-10-31T10:54:41;100459.44;;;14.25;100.00
31681;BME280;18281;51.364;9.566;2022-10-31T10:59:55;100454.06;;;14.13;100.00
31681;BME280;18281;51.364;9.566;2022-10-31T11:02:25;100442.19;;;14.47;100.00
31681;BME280;18281;51.364;9.566;2022-10-31T11:04:54;100447.81;;;14.55;100.00
31681;BME280;18281;51.364;9.566;2022-10-31T11:07:20;100444.22;;;14.56;100.00
31681;BME280;18281;51.364;9.566;2022-10-31T11:09:45;100436.84;;;14.62;100.00
31681;BME280;18281;51.364;9.566;2022-10-31T11:12:32;100431.38;;;14.92;100.00
31681;BME280;18281;51.364;9.566;2022-10-31T11:15:01;100423.31;;;14.93;100.00
31681;BME280;18281;51.364;9.566;2022-10-31T11:17:36;100423.75;;;15.13;100.00
31681;BME280;18281;51.364;9.566;2022-10-31T11:22:47;100411.94;;;15.19;100.00
31681;BME280;18281;51.364;9.566;2022-10-31T11:27:45;100413.06;;;15.27;100.00
31681;BME280;18281;51.364;9.566;2022-10-31T11:30:12;100403.88;;;15.46;100.00
31681;BME280;18281;51.364;9.566;2022-10-31T11:32:46;100404.91;;;15.43;100.00
31681;BME280;18281;51.364;9.566;2022-10-31T11:35:16;100407.03;;;15.38;100.00
31681;BME280;18281;51.364;9.566;2022-10-31T11:37:45;100400.38;;;15.71;100.00
31681;BME280;18281;51.364;9.566;2022-10-31T11:40:18;100397.66;;;15.84;100.00
31681;BME280;18281;51.364;9.566;2022-10-31T11:42:44;100400.47;;;15.70;100.00
31681;BME280;18281;51.364;9.566;2022-10-31T11:45:36;100389.28;;;15.90;100.00
31681;BME280;18281;51.364;9.566;2022-10-31T11:48:02;100386.25;;;16.08;100.00
31681;BME280;18281;51.364;9.566;2022-10-31T11:50:41;100381.31;;;16.03;100.00
31681;BME280;18281;51.364;9.566;2022-10-31T11:53:35;100381.56;;;16.24;100.00
31681;BME280;18281;51.364;9.566;2022-10-31T11:56:13;100378.16;;;16.22;100.00
31681;BME280;18281;51.364;9.566;2022-10-31T11:58:39;100378.72;;;16.15;100.00
31681;BME280;18281;51.364;9.566;2022-10-31T12:01:05;100370.25;;;16.09;100.00
31681;BME280;18281;51.364;9.566;2022-10-31T12:03:43;100360.81;;;16.18;100.00
31681;BME280;18281;51.364;9.566;2022-10-31T12:06:20;100362.34;;;16.45;100.00
31681;BME280;18281;51.364;9.566;2022-10-31T12:08:47;100354.97;;;16.62;100.00
31681;BME280;18281;51.364;9.566;2022-10-31T12:11:40;100360.16;;;16.63;100.00
31681;BME280;18281;51.364;9.566;2022-10-31T12:16:56;100346.41;;;16.34;100.00
31681;BME280;18281;51.364;9.566;2022-10-31T12:24:57;100343.16;;;16.54;100.00
31681;BME280;18281;51.364;9.566;2022-10-31T12:27:43;100332.19;;;16.35;100.00
31681;BME280;18281;51.364;9.566;2022-10-31T12:30:24;100329.59;;;16.46;100.00
31681;BME280;18281;51.364;9.566;2022-10-31T12:36:00;100320.63;;;16.24;100.00
31681;BME280;18281;51.364;9.566;2022-10-31T12:41:41;100306.72;;;16.45;100.00
31681;BME280;18281;51.364;9.566;2022-10-31T12:44:16;100305.00;;;16.33;100.00
31681;BME280;18281;51.364;9.566;2022-10-31T12:49:35;100290.94;;;16.43;100.00
31681;BME280;18281;51.364;9.566;2022-10-31T12:52:19;100277.44;;;16.47;100.00
31681;BME280;18281;51.364;9.566;2022-10-31T12:57:32;100281.16;;;16.33;100.00
31681;BME280;18281;51.364;9.566;2022-10-31T13:00:04;100271.13;;;16.36;100.00
31681;BME280;18281;51.364;9.566;2022-10-31T13:02:44;100266.22;;;16.43;100.00
31681;BME280;18281;51.364;9.566;2022-10-31T13:07:57;100259.28;;;16.53;100.00
31681;BME280;18281;51.364;9.566;2022-10-31T13:10:47;100251.69;;;16.13;100.00
31681;BME280;18281;51.364;9.566;2022-10-31T13:13:21;100252.13;;;16.31;100.00
31681;BME280;18281;51.364;9.566;2022-10-31T13:15:52;100251.00;;;16.34;100.00
31681;BME280;18281;51.364;9.566;2022-10-31T13:21:26;100244.44;;;16.39;100.00
31681;BME280;18281;51.364;9.566;2022-10-31T13:23:54;100239.09;;;16.28;100.00
31681;BME280;18281;51.364;9.566;2022-10-31T13:26:39;100232.59;;;16.32;100.00
31681;BME280;18281;51.364;9.566;2022-10-31T13:31:50;100227.75;;;16.15;100.00
31681;BME280;18281;51.364;9.566;2022-10-31T13:34:30;100227.03;;;16.24;100.00
31681;BME280;18281;51.364;9.566;2022-10-31T13:37:09;100220.66;;;16.15;100.00
31681;BME280;18281;51.364;9.566;2022-10-31T13:39:55;100227.59;;;16.05;100.00
31681;BME280;18281;51.364;9.566;2022-10-31T13:42:39;100228.72;;;15.65;100.00
31681;BME280;18281;51.364;9.566;2022-10-31T13:45:19;100226.97;;;15.53;100.00
31681;BME280;18281;51.364;9.566;2022-10-31T13:48:17;100225.41;;;15.50;100.00
31681;BME280;18281;51.364;9.566;2022-10-31T13:51:04;100214.66;;;15.40;100.00
31681;BME280;18281;51.364;9.566;2022-10-31T13:53:43;100222.78;;;15.37;100.00
31681;BME280;18281;51.364;9.566;2022-10-31T13:58:34;100211.88;;;15.79;100.00
31681;BME280;18281;51.364;9.566;2022-10-31T14:01:13;100213.09;;;15.86;100.00
31681;BME280;18281;51.364;9.566;2022-10-31T14:03:42;100206.59;;;15.90;100.00
31681;BME280;18281;51.364;9.566;2022-10-31T14:06:09;100210.50;;;15.73;100.00
31681;BME280;18281;51.364;9.566;2022-10-31T14:08:39;100206.56;;;15.79;100.00
31681;BME280;18281;51.364;9.566;2022-10-31T14:11:07;100205.66;;;16.03;100.00
31681;BME280;18281;51.364;9.566;2022-10-31T14:13:52;100204.00;;;16.02;100.00
31681;BME280;18281;51.364;9.566;2022-10-31T14:16:22;100200.34;;;15.91;100.00
31681;BME280;18281;51.364;9.566;2022-10-31T14:18:51;100193.53;;;15.76;100.00
31681;BME280;18281;51.364;9.566;2022-10-31T14:23:48;100188.13;;;15.53;100.00
31681;BME280;18281;51.364;9.566;2022-10-31T14:28:58;100185.03;;;15.59;100.00
31681;BME280;18281;51.364;9.566;2022-10-31T14:31:41;100178.03;;;15.83;100.00
31681;BME280;18281;51.364;9.566;2022-10-31T14:34:20;100175.06;;;15.87;100.00